createdAt,value
2018-08-11T00:29:15.029Z,100.00
2018-08-11T00:30:37.943Z,100.00
2018-08-11T00:32:08.436Z,100.00
2018-08-11T00:33:31.664Z,100.00
2018-08-11T00:35:03.288Z,100.00
2018-08-11T00:38:42.368Z,100.00
2018-08-11T00:47:06.059Z,100.00
2018-08-11T00:49:44.702Z,100.00
2018-08-11T00:51:07.083Z,100.00
2018-08-11T00:52:38.438Z,100.00
2018-08-11T00:54:05.757Z,100.00
2018-08-11T00:55:28.550Z,100.00
2018-08-11T00:56:56.033Z,100.00
2018-08-11T00:58:23.421Z,100.00
2018-08-11T00:59:50.543Z,100.00
2018-08-11T01:01:17.960Z,100.00
2018-08-11T01:02:45.478Z,100.00
2018-08-11T01:04:12.866Z,100.00
2018-08-11T01:05:44.387Z,100.00
2018-08-11T01:07:07.896Z,100.00
2018-08-11T01:08:34.914Z,100.00
2018-08-11T01:10:01.735Z,100.00
2018-08-11T01:11:29.235Z,100.00
2018-08-11T01:13:00.601Z,100.00
2018-08-11T01:14:28.127Z,100.00
2018-08-11T01:15:55.445Z,100.00
2018-08-11T01:17:18.779Z,100.00
2018-08-11T01:18:45.683Z,100.00
2018-08-11T01:20:17.077Z,100.00
2018-08-11T01:21:40.746Z,100.00
2018-08-11T01:23:12.128Z,100.00
2018-08-11T01:24:39.582Z,100.00
2018-08-11T01:26:03.091Z,100.00
2018-08-11T01:27:30.326Z,100.00
2018-08-11T01:28:57.929Z,100.00
2018-08-11T01:30:29.345Z,100.00
2018-08-11T01:31:52.928Z,100.00
2018-08-11T01:33:24.496Z,100.00
2018-08-11T01:34:47.444Z,100.00
2018-08-11T01:36:14.786Z,100.00
2018-08-11T01:37:42.125Z,100.00
2018-08-11T01:39:09.124Z,100.00
2018-08-11T01:40:40.048Z,100.00
2018-08-11T01:42:03.398Z,100.00
2018-08-11T01:43:34.366Z,100.00
2018-08-11T01:45:01.851Z,100.00
2018-08-11T01:46:29.358Z,100.00
2018-08-11T01:47:56.771Z,100.00
2018-08-11T01:49:23.674Z,100.00
2018-08-11T01:50:46.187Z,100.00
2018-08-11T01:52:13.389Z,100.00
2018-08-11T01:53:45.010Z,100.00
2018-08-11T01:55:12.560Z,100.00
2018-08-11T01:56:35.854Z,100.00
2018-08-11T01:58:06.682Z,100.00
2018-08-11T01:59:29.299Z,100.00
2018-08-11T02:01:00.874Z,100.00
2018-08-11T02:02:23.388Z,100.00
2018-08-11T02:03:50.912Z,100.00
2018-08-11T02:05:22.097Z,100.00
2018-08-11T02:06:45.305Z,100.00
2018-08-11T02:08:11.951Z,100.00
2018-08-11T02:09:39.324Z,100.00
2018-08-11T02:11:06.736Z,100.00
2018-08-11T02:12:38.465Z,100.00
2018-08-11T02:14:01.920Z,100.00
2018-08-11T02:15:29.564Z,100.00
2018-08-11T02:17:01.090Z,100.00
2018-08-11T02:18:24.623Z,100.00
2018-08-11T02:19:51.851Z,100.00
2018-08-11T02:21:23.471Z,100.00
2018-08-11T02:22:46.149Z,100.00
2018-08-11T02:24:13.141Z,100.00
2018-08-11T02:25:40.699Z,100.00
2018-08-11T02:27:08.290Z,100.00
2018-08-11T02:28:34.617Z,100.00
2018-08-11T02:30:02.173Z,100.00
2018-08-11T02:31:29.678Z,100.00
2018-08-11T02:33:01.268Z,100.00
2018-08-11T02:34:28.723Z,100.00
2018-08-11T02:35:52.214Z,100.00
2018-08-11T02:37:23.045Z,100.00
2018-08-11T02:38:50.431Z,100.00
2018-08-11T02:40:13.161Z,100.00
2018-08-11T02:41:44.752Z,100.00
2018-08-11T02:43:12.310Z,100.00
2018-08-11T02:44:39.837Z,100.00
2018-08-11T02:46:03.569Z,100.00
2018-08-11T02:47:34.230Z,100.00
2018-08-11T02:48:57.648Z,100.00
2018-08-11T02:50:24.779Z,100.00
2018-08-11T02:51:52.341Z,100.00
2018-08-11T02:53:19.796Z,100.00
2018-08-11T02:54:47.230Z,100.00
2018-08-11T02:56:14.660Z,100.00
2018-08-11T02:57:45.892Z,100.00
2018-08-11T02:59:09.269Z,100.00
2018-08-11T03:00:40.711Z,100.00
2018-08-11T03:02:03.375Z,100.00
2018-08-11T03:03:30.716Z,100.00
2018-08-11T03:04:58.340Z,100.00
2018-08-11T03:06:29.816Z,100.00
2018-08-11T03:07:56.895Z,100.00
2018-08-11T03:09:20.327Z,100.00
2018-08-11T03:10:52.257Z,100.00
2018-08-11T03:12:14.429Z,100.00
2018-08-11T03:13:41.726Z,100.00
2018-08-11T03:15:13.029Z,100.00
2018-08-11T03:16:36.704Z,100.00
2018-08-11T03:18:04.132Z,100.00
2018-08-11T03:19:35.712Z,100.00
2018-08-11T03:21:03.213Z,100.00
2018-08-11T03:22:30.852Z,100.00
2018-08-11T03:23:54.374Z,100.00
2018-08-11T03:25:25.736Z,100.00
2018-08-11T03:26:49.225Z,100.00
2018-08-11T03:28:20.665Z,100.00
2018-08-11T03:29:47.215Z,100.00
2018-08-11T03:31:14.875Z,100.00
2018-08-11T03:32:38.240Z,100.00
2018-08-11T03:34:09.723Z,100.00
2018-08-11T03:35:37.174Z,100.00
2018-08-11T03:37:04.670Z,100.00
2018-08-11T03:38:32.122Z,100.00
2018-08-11T03:39:55.436Z,100.00
2018-08-11T03:41:22.550Z,100.00
2018-08-11T03:42:49.996Z,100.00
2018-08-11T03:44:17.357Z,100.00
2018-08-11T03:45:44.530Z,100.00
2018-08-11T03:47:11.583Z,100.00
2018-08-11T03:48:39.142Z,100.00
2018-08-11T03:50:10.134Z,100.00
2018-08-11T03:51:37.467Z,100.00
2018-08-11T03:53:00.303Z,100.00
2018-08-11T03:54:31.048Z,100.00
2018-08-11T03:55:58.464Z,100.00
2018-08-11T03:57:25.316Z,100.00
2018-08-11T03:58:48.726Z,100.00
2018-08-11T04:00:19.961Z,100.00
2018-08-11T04:01:47.083Z,100.00
2018-08-11T04:03:14.724Z,100.00
2018-08-11T04:04:42.047Z,100.00
2018-08-11T04:06:09.025Z,100.00
2018-08-11T04:07:36.499Z,100.00
2018-08-11T04:08:59.914Z,100.00
2018-08-11T04:10:27.301Z,100.00
2018-08-11T04:11:54.013Z,100.00
2018-08-11T04:13:21.542Z,100.00
2018-08-11T04:14:48.898Z,100.00
2018-08-11T04:16:16.278Z,100.00
2018-08-11T04:17:43.702Z,100.00
2018-08-11T04:19:15.213Z,100.00
2018-08-11T04:20:42.748Z,100.00
2018-08-11T04:22:10.252Z,100.00
2018-08-11T04:23:37.837Z,100.00
2018-08-11T04:25:01.371Z,100.00
2018-08-11T04:26:32.779Z,100.00
2018-08-11T04:28:00.310Z,100.00
2018-08-11T04:29:23.676Z,100.00
2018-08-11T04:30:54.420Z,100.00
2018-08-11T04:32:17.816Z,100.00
2018-08-11T04:33:45.111Z,100.00
2018-08-11T04:35:12.668Z,100.00
2018-08-11T04:36:44.205Z,100.00
2018-08-11T04:38:07.620Z,100.00
2018-08-11T04:39:35.258Z,100.00
2018-08-11T04:41:02.673Z,100.00
2018-08-11T04:42:29.497Z,100.00
2018-08-11T04:43:55.935Z,100.00
2018-08-11T04:45:23.426Z,100.00
2018-08-11T04:46:49.973Z,100.00
2018-08-11T04:48:17.375Z,100.00
2018-08-11T04:49:44.787Z,100.00
2018-08-11T04:51:11.998Z,100.00
2018-08-11T04:52:39.444Z,100.00
2018-08-11T04:54:10.886Z,100.00
2018-08-11T04:55:37.610Z,100.00
2018-08-11T04:57:05.082Z,100.00
2018-08-11T04:58:28.503Z,100.00
2018-08-11T04:59:55.902Z,100.00
2018-08-11T05:01:27.467Z,100.00
2018-08-11T05:02:50.842Z,100.00
2018-08-11T05:04:17.658Z,100.00
2018-08-11T05:05:48.467Z,100.00
2018-08-11T05:07:11.119Z,100.00
2018-08-11T05:08:42.565Z,100.00
2018-08-11T05:10:06.008Z,100.00
2018-08-11T05:11:33.545Z,100.00
2018-08-11T05:13:01.162Z,100.00
2018-08-11T05:14:32.575Z,100.00
2018-08-11T05:16:00.005Z,100.00
2018-08-11T05:17:27.529Z,100.00
2018-08-11T05:18:50.935Z,100.00
2018-08-11T05:20:18.313Z,100.00
2018-08-11T05:21:45.341Z,100.00
2018-08-11T05:23:16.820Z,100.00
2018-08-11T05:24:43.819Z,100.00
2018-08-11T05:26:11.205Z,100.00
2018-08-11T05:27:38.444Z,100.00
2018-08-11T05:29:06.000Z,100.00
2018-08-11T05:30:29.038Z,100.00
2018-08-11T05:31:56.585Z,100.00
2018-08-11T05:33:24.162Z,100.00
2018-08-11T05:34:54.744Z,100.00
2018-08-11T05:36:18.167Z,100.00
2018-08-11T05:37:45.226Z,100.00
2018-08-11T05:39:12.741Z,100.00
2018-08-11T05:40:40.234Z,100.00
2018-08-11T05:42:11.833Z,100.00
2018-08-11T05:43:39.417Z,100.00
2018-08-11T05:45:06.731Z,100.00
2018-08-11T05:46:30.132Z,100.00
2018-08-11T05:48:00.671Z,100.00
2018-08-11T05:49:27.453Z,100.00
2018-08-11T05:50:50.809Z,100.00
2018-08-11T05:52:18.270Z,100.00
2018-08-11T05:53:45.828Z,100.00
2018-08-11T05:55:17.324Z,100.00
2018-08-11T05:56:40.759Z,100.00
2018-08-11T05:58:08.374Z,100.00
2018-08-11T05:59:35.223Z,100.00
2018-08-11T06:01:02.160Z,100.00
2018-08-11T06:02:29.516Z,100.00
2018-08-11T06:04:01.039Z,100.00
2018-08-11T06:05:28.467Z,100.00
2018-08-11T06:06:55.946Z,100.00
2018-08-11T06:08:19.006Z,100.00
2018-08-11T06:09:46.654Z,100.00
2018-08-11T06:11:18.085Z,100.00
2018-08-11T06:12:45.639Z,100.00
2018-08-11T06:14:08.784Z,100.00
2018-08-11T06:15:40.113Z,100.00
2018-08-11T06:17:03.329Z,100.00
2018-08-11T06:18:34.981Z,100.00
2018-08-11T06:20:02.497Z,100.00
2018-08-11T06:21:25.710Z,100.00
2018-08-11T06:22:57.098Z,100.00
2018-08-11T06:24:20.405Z,100.00
2018-08-11T06:25:47.692Z,100.00
2018-08-11T06:27:15.194Z,100.00
2018-08-11T06:28:46.772Z,100.00
2018-08-11T06:30:10.049Z,100.00
2018-08-11T06:31:41.652Z,100.00
2018-08-11T06:33:04.388Z,100.00
2018-08-11T06:34:31.887Z,100.00
2018-08-11T06:35:59.010Z,100.00
2018-08-11T06:37:25.972Z,100.00
2018-08-11T06:38:53.210Z,100.00
2018-08-11T06:40:20.730Z,100.00
2018-08-11T06:41:48.256Z,100.00
2018-08-11T06:43:19.616Z,100.00
2018-08-11T06:44:47.041Z,100.00
2018-08-11T06:46:09.925Z,100.00
2018-08-11T06:47:41.359Z,100.00
2018-08-11T06:49:04.962Z,100.00
2018-08-11T06:50:36.350Z,100.00
2018-08-11T06:52:03.948Z,100.00
2018-08-11T06:53:27.429Z,100.00
2018-08-11T06:54:58.964Z,100.00
2018-08-11T06:56:22.654Z,100.00
2018-08-11T06:57:53.246Z,100.00
2018-08-11T06:59:16.642Z,100.00
2018-08-11T07:00:43.913Z,100.00
2018-08-11T07:02:15.176Z,100.00
2018-08-11T07:03:42.603Z,100.00
2018-08-11T07:05:06.133Z,100.00
2018-08-11T07:06:33.793Z,100.00
2018-08-11T07:08:05.200Z,100.00
2018-08-11T07:09:28.593Z,100.00
2018-08-11T07:10:55.539Z,100.00
2018-08-11T07:12:22.430Z,100.00
2018-08-11T07:13:53.921Z,100.00
2018-08-11T07:15:21.357Z,100.00
2018-08-11T07:16:44.512Z,100.00
2018-08-11T07:18:15.953Z,100.00
2018-08-11T07:19:39.056Z,100.00
2018-08-11T07:21:06.548Z,100.00
2018-08-11T07:22:38.050Z,100.00
2018-08-11T07:24:05.394Z,100.00
2018-08-11T07:25:32.881Z,100.00
2018-08-11T07:26:59.337Z,100.00
2018-08-11T07:28:22.798Z,100.00
2018-08-11T07:29:53.838Z,100.00
2018-08-11T07:31:16.782Z,100.00
2018-08-11T07:32:44.134Z,100.00
2018-08-11T07:34:11.857Z,100.00
2018-08-11T07:35:43.345Z,100.00
2018-08-11T07:37:10.941Z,100.00
2018-08-11T07:38:38.219Z,100.00
2018-08-11T07:40:01.915Z,100.00
2018-08-11T07:41:29.403Z,100.00
2018-08-11T07:42:56.993Z,100.00
2018-08-11T07:44:24.232Z,100.00
2018-08-11T07:45:51.642Z,100.00
2018-08-11T07:47:19.147Z,100.00
2018-08-11T07:48:46.325Z,100.00
2018-08-11T07:50:13.754Z,100.00
2018-08-11T07:51:41.338Z,100.00
2018-08-11T07:53:12.848Z,100.00
2018-08-11T07:54:36.325Z,100.00
2018-08-11T07:56:04.005Z,100.00
2018-08-11T07:57:35.458Z,100.00
2018-08-11T07:58:58.794Z,100.00
2018-08-11T08:00:30.184Z,100.00
2018-08-11T08:01:53.445Z,100.00
2018-08-11T08:03:20.864Z,100.00
2018-08-11T08:04:48.383Z,100.00
2018-08-11T08:06:19.581Z,100.00
2018-08-11T08:07:42.722Z,100.00
2018-08-11T08:09:10.213Z,100.00
2018-08-11T08:10:37.434Z,100.00
2018-08-11T08:12:08.989Z,100.00
2018-08-11T08:13:32.436Z,100.00
2018-08-11T08:15:02.944Z,100.00
2018-08-11T08:16:26.060Z,100.00
2018-08-11T08:17:57.448Z,100.00
2018-08-11T08:19:20.272Z,100.00
2018-08-11T08:20:47.372Z,100.00
2018-08-11T08:22:18.447Z,100.00
2018-08-11T08:23:41.648Z,100.00
2018-08-11T08:25:09.182Z,100.00
2018-08-11T08:26:40.764Z,100.00
2018-08-11T08:28:04.346Z,100.00
2018-08-11T08:29:31.746Z,100.00
2018-08-11T08:30:58.623Z,100.00
2018-08-11T08:32:26.261Z,100.00
2018-08-11T08:33:53.771Z,100.00
2018-08-11T08:35:25.051Z,100.00
2018-08-11T08:36:48.400Z,100.00
2018-08-11T08:38:15.867Z,100.00
2018-08-11T08:39:47.158Z,100.00
2018-08-11T08:41:10.676Z,100.00
2018-08-11T08:42:38.052Z,100.00
2018-08-11T08:44:09.510Z,100.00
2018-08-11T08:45:33.017Z,100.00
2018-08-11T08:47:04.334Z,100.00
2018-08-11T08:48:27.944Z,100.00
2018-08-11T08:49:54.528Z,100.00
2018-08-11T08:51:22.200Z,100.00
2018-08-11T08:52:48.635Z,100.00
2018-08-11T08:54:19.950Z,100.00
2018-08-11T08:55:47.092Z,100.00
2018-08-11T08:57:14.681Z,100.00
2018-08-11T08:58:38.135Z,100.00
2018-08-11T09:00:05.038Z,100.00
2018-08-11T09:01:35.972Z,100.00
2018-08-11T09:02:59.236Z,100.00
2018-08-11T09:04:30.814Z,100.00
2018-08-11T09:05:54.510Z,100.00
2018-08-11T09:07:25.737Z,100.00
2018-08-11T09:08:48.503Z,100.00
2018-08-11T09:10:15.334Z,100.00
2018-08-11T09:11:46.723Z,100.00
2018-08-11T09:13:10.293Z,100.00
2018-08-11T09:14:41.478Z,100.00
2018-08-11T09:16:04.391Z,100.00
2018-08-11T09:17:31.522Z,100.00
2018-08-11T09:18:58.810Z,100.00
2018-08-11T09:20:30.268Z,100.00
2018-08-11T09:22:03.256Z,100.00
2018-08-11T09:29:13.646Z,100.00
2018-08-11T09:30:36.384Z,100.00
2018-08-11T09:32:17.408Z,100.00
2018-08-11T09:33:40.610Z,100.00
2018-08-11T09:35:07.172Z,100.00
2018-08-11T09:36:34.338Z,100.00
2018-08-11T09:38:05.739Z,100.00
2018-08-11T09:39:29.429Z,100.00
2018-08-11T09:41:00.815Z,100.00
2018-08-11T09:42:24.319Z,100.00
2018-08-11T09:43:51.781Z,100.00
2018-08-11T09:45:19.296Z,100.00
2018-08-11T09:46:46.576Z,100.00
2018-08-11T09:48:17.903Z,100.00
2018-08-11T09:49:41.439Z,100.00
2018-08-11T09:51:08.840Z,100.00
2018-08-11T09:52:36.341Z,100.00
2018-08-11T09:54:03.858Z,100.00
2018-08-11T09:55:31.345Z,100.00
2018-08-11T09:57:02.834Z,100.00
2018-08-11T09:58:26.446Z,100.00
2018-08-11T09:59:57.636Z,100.00
2018-08-11T10:01:24.890Z,100.00
2018-08-11T10:02:47.883Z,100.00
2018-08-11T10:04:19.283Z,100.00
2018-08-11T10:05:42.137Z,100.00
2018-08-11T10:07:09.775Z,100.00
2018-08-11T10:08:37.303Z,100.00
2018-08-11T10:10:08.720Z,100.00
2018-08-11T10:11:36.162Z,100.00
2018-08-11T10:12:59.553Z,100.00
2018-08-11T10:14:27.000Z,100.00
2018-08-11T10:15:54.588Z,100.00
2018-08-11T10:17:25.491Z,100.00
2018-08-11T10:18:53.896Z,100.00
2018-08-11T10:20:24.539Z,100.00
2018-08-11T10:21:47.712Z,100.00
2018-08-11T10:23:15.086Z,100.00
2018-08-11T10:24:42.224Z,100.00
2018-08-11T10:26:05.561Z,100.00
2018-08-11T10:27:37.137Z,100.00
2018-08-11T10:29:00.209Z,100.00
2018-08-11T10:30:31.829Z,100.00
2018-08-11T10:31:55.348Z,100.00
2018-08-11T10:33:26.805Z,100.00
2018-08-11T10:34:50.502Z,100.00
2018-08-11T10:36:21.865Z,100.00
2018-08-11T10:37:45.028Z,100.00
2018-08-11T10:39:12.420Z,100.00
2018-08-11T10:40:39.856Z,100.00
2018-08-11T10:42:11.372Z,100.00
2018-08-11T10:43:38.524Z,100.00
2018-08-11T10:45:02.025Z,100.00
2018-08-11T10:46:28.923Z,100.00
2018-08-11T10:47:56.336Z,100.00
2018-08-11T10:49:27.850Z,100.00
2018-08-11T10:50:55.048Z,100.00
2018-08-11T10:52:18.390Z,100.00
2018-08-11T10:53:49.852Z,100.00
2018-08-11T10:55:17.255Z,98.32
2018-08-11T10:56:40.557Z,100.00
2018-08-11T10:58:07.907Z,100.00
2018-08-11T10:59:35.284Z,100.00
2018-08-11T11:01:06.716Z,100.00
2018-08-11T11:02:30.318Z,100.00
2018-08-11T11:04:01.689Z,100.00
2018-08-11T11:05:29.389Z,100.00
2018-08-11T11:06:52.801Z,99.94
2018-08-11T11:08:24.248Z,100.00
2018-08-11T11:09:47.621Z,100.00
2018-08-11T11:11:18.955Z,98.30
2018-08-11T11:12:46.163Z,96.90
2018-08-11T11:14:09.769Z,92.80
2018-08-11T11:15:37.315Z,93.18
2018-08-11T11:17:04.837Z,88.48
2018-08-11T11:18:32.541Z,89.55
2018-08-11T11:20:03.611Z,88.16
2018-08-11T11:21:27.000Z,89.51
2018-08-11T11:22:54.586Z,92.29
2018-08-11T11:24:26.256Z,91.14
2018-08-11T11:25:49.832Z,89.87
2018-08-11T11:27:17.212Z,89.20
2018-08-11T11:28:44.807Z,87.36
2018-08-11T11:30:12.214Z,85.10
2018-08-11T11:31:43.778Z,82.95
2018-08-11T11:33:10.927Z,82.33
2018-08-11T11:34:38.381Z,81.50
2018-08-11T11:36:01.812Z,81.50
2018-08-11T11:37:32.845Z,81.70
2018-08-11T11:39:00.456Z,77.53
2018-08-11T11:40:24.244Z,75.07
2018-08-11T11:41:48.638Z,73.81
2018-08-11T11:43:23.427Z,70.70
2018-08-11T11:44:50.676Z,69.68
2018-08-11T11:46:10.906Z,70.00
2018-08-11T11:47:41.622Z,70.13
2018-08-11T11:49:13.011Z,70.98
2018-08-11T11:50:40.264Z,71.34
2018-08-11T11:52:07.727Z,72.76
2018-08-11T11:53:30.805Z,73.96
2018-08-11T11:54:58.308Z,73.98
2018-08-11T11:56:29.801Z,73.96
2018-08-11T11:57:57.329Z,76.67
2018-08-11T11:59:20.804Z,74.19
2018-08-11T12:00:52.243Z,75.04
2018-08-11T12:02:15.468Z,75.99
2018-08-11T12:03:46.948Z,76.65
2018-08-11T12:05:14.325Z,78.11
2018-08-11T12:06:41.936Z,75.92
2018-08-11T12:08:05.561Z,74.94
2018-08-11T12:09:30.220Z,75.03
2018-08-11T12:11:00.612Z,74.77
2018-08-11T12:12:32.194Z,75.45
2018-08-11T12:13:59.896Z,77.25
2018-08-11T12:15:27.291Z,76.17
2018-08-11T12:16:51.080Z,76.97
2018-08-11T12:18:18.391Z,76.10
2018-08-11T12:19:49.851Z,76.22
2018-08-11T12:21:13.147Z,77.80
2018-08-11T12:22:44.821Z,79.78
2018-08-11T12:24:08.594Z,80.72
2018-08-11T12:25:35.324Z,82.42
2018-08-11T12:27:02.853Z,83.63
2018-08-11T12:28:30.393Z,84.92
2018-08-11T12:29:57.972Z,98.78
2018-08-11T12:31:29.521Z,100.00
2018-08-11T12:32:53.109Z,100.00
2018-08-11T12:34:20.558Z,100.00
2018-08-11T12:35:48.087Z,100.00
2018-08-11T12:37:19.393Z,100.00
2018-08-11T12:38:56.048Z,100.00
2018-08-11T12:40:16.230Z,100.00
2018-08-11T12:41:46.797Z,100.00
2018-08-11T12:43:14.321Z,100.00
2018-08-11T12:44:45.871Z,100.00
2018-08-11T13:03:10.813Z,100.00
2018-08-11T13:04:37.117Z,100.00
2018-08-11T13:06:00.578Z,100.00
2018-08-11T13:07:27.868Z,100.00
2018-08-11T13:08:55.290Z,100.00
2018-08-11T13:10:22.647Z,100.00
2018-08-11T13:11:50.004Z,100.00
2018-08-11T13:13:17.516Z,100.00
2018-08-11T13:14:45.045Z,100.00
2018-08-11T13:16:12.446Z,100.00
2018-08-11T13:17:40.126Z,100.00
2018-08-11T13:19:11.660Z,100.00
2018-08-11T13:20:35.209Z,100.00
2018-08-11T13:22:06.480Z,100.00
2018-08-11T13:23:30.164Z,100.00
2018-08-11T13:25:01.072Z,100.00
2018-08-11T13:26:28.546Z,100.00
2018-08-11T13:27:51.976Z,100.00
2018-08-11T13:29:19.567Z,100.00
2018-08-11T13:30:51.104Z,100.00
2018-08-11T13:32:14.224Z,100.00
2018-08-11T13:33:41.942Z,100.00
2018-08-11T13:35:13.568Z,100.00
2018-08-11T13:36:37.006Z,100.00
2018-08-11T13:38:04.554Z,100.00
2018-08-11T13:39:32.056Z,100.00
2018-08-11T13:40:59.466Z,100.00
2018-08-11T13:42:26.871Z,100.00
2018-08-11T13:43:54.379Z,100.00
2018-08-11T13:45:21.929Z,100.00
2018-08-11T13:46:48.727Z,100.00
2018-08-11T13:48:19.803Z,100.00
2018-08-11T13:49:46.894Z,100.00
2018-08-11T13:51:10.420Z,100.00
2018-08-11T13:52:41.747Z,100.00
2018-08-11T13:54:04.623Z,100.00
2018-08-11T13:55:32.216Z,100.00
2018-08-11T13:56:59.222Z,100.00
2018-08-11T13:58:30.405Z,100.00
2018-08-11T13:59:53.574Z,100.00
2018-08-11T14:01:21.015Z,100.00
2018-08-11T14:02:48.565Z,100.00
2018-08-11T14:04:15.783Z,100.00
2018-08-11T14:05:43.222Z,100.00
2018-08-11T14:07:10.991Z,100.00
2018-08-11T14:08:37.833Z,100.00
2018-08-11T14:10:05.180Z,100.00
2018-08-11T14:11:32.106Z,100.00
2018-08-11T14:12:59.601Z,100.00
2018-08-11T14:14:27.212Z,100.00
2018-08-11T14:15:58.670Z,100.00
2018-08-11T14:17:22.229Z,100.00
2018-08-11T14:18:53.094Z,100.00
2018-08-11T14:20:16.449Z,100.00
2018-08-11T14:21:47.821Z,100.00
2018-08-11T14:23:11.210Z,100.00
2018-08-11T14:24:42.793Z,100.00
2018-08-11T14:26:06.241Z,100.00
2018-08-11T14:27:33.506Z,100.00
2018-08-11T14:29:00.359Z,100.00
2018-08-11T14:30:27.882Z,100.00
2018-08-11T14:31:55.077Z,100.00
2018-08-11T14:33:26.412Z,100.00
2018-08-11T14:34:53.870Z,100.00
2018-08-11T14:36:17.474Z,100.00
2018-08-11T14:37:44.936Z,100.00
2018-08-11T14:39:16.363Z,100.00
2018-08-11T14:40:43.968Z,100.00
2018-08-11T14:42:11.435Z,100.00
2018-08-11T14:43:38.822Z,100.00
2018-08-11T14:45:06.354Z,100.00
2018-08-11T14:46:29.403Z,100.00
2018-08-11T14:48:00.921Z,100.00
2018-08-11T14:49:24.416Z,100.00
2018-08-11T14:50:51.879Z,100.00
2018-08-11T14:52:19.073Z,100.00
2018-08-11T14:53:50.018Z,100.00
2018-08-11T14:55:13.024Z,100.00
2018-08-11T14:56:40.557Z,100.00
2018-08-11T14:58:12.131Z,100.00
2018-08-11T14:59:39.763Z,100.00
2018-08-11T15:01:03.008Z,100.00
2018-08-11T15:02:29.895Z,100.00
2018-08-11T15:03:57.334Z,100.00
2018-08-11T15:05:24.973Z,100.00
2018-08-11T15:06:55.563Z,100.00
2018-08-11T15:08:22.908Z,100.00
2018-08-11T15:09:46.576Z,100.00
2018-08-11T15:11:17.975Z,100.00
2018-08-11T15:12:41.334Z,100.00
2018-08-11T15:14:08.782Z,100.00
2018-08-11T15:15:40.202Z,100.00
2018-08-11T15:17:03.895Z,100.00
2018-08-11T15:18:35.108Z,100.00
2018-08-11T15:20:02.492Z,100.00
2018-08-11T15:21:25.032Z,100.00
2018-08-11T15:22:52.561Z,100.00
2018-08-11T15:24:24.068Z,100.00
2018-08-11T15:25:47.581Z,100.00
2018-08-11T15:27:19.132Z,100.00
2018-08-11T15:28:42.509Z,100.00
2018-08-11T15:30:10.009Z,100.00
2018-08-11T15:31:41.504Z,100.00
2018-08-11T15:33:09.000Z,100.00
2018-08-11T15:34:36.571Z,100.00
2018-08-11T15:36:03.997Z,100.00
2018-08-11T15:37:27.459Z,100.00
2018-08-11T15:38:54.610Z,100.00
2018-08-11T15:40:21.860Z,100.00
2018-08-11T15:41:49.171Z,100.00
2018-08-11T15:43:16.478Z,100.00
2018-08-11T15:44:47.950Z,100.00
2018-08-11T15:46:15.477Z,100.00
2018-08-11T15:47:42.976Z,100.00
2018-08-11T15:49:06.506Z,100.00
2018-08-11T15:50:38.086Z,100.00
2018-08-11T15:52:01.206Z,100.00
2018-08-11T15:53:32.640Z,100.00
2018-08-11T15:54:56.066Z,100.00
2018-08-11T15:56:26.718Z,100.00
2018-08-11T15:57:54.010Z,100.00
2018-08-11T15:59:21.541Z,100.00
2018-08-11T16:00:44.775Z,100.00
2018-08-11T16:02:12.306Z,100.00
2018-08-11T16:03:43.785Z,100.00
2018-08-11T16:05:11.369Z,100.00
2018-08-11T16:06:34.650Z,100.00
2018-08-11T16:08:06.154Z,100.00
2018-08-11T16:09:33.878Z,100.00
2018-08-11T16:11:01.353Z,100.00
2018-08-11T16:12:24.636Z,100.00
2018-08-11T16:13:52.159Z,100.00
2018-08-11T16:15:19.475Z,100.00
2018-08-11T16:16:50.988Z,100.00
2018-08-11T16:18:17.862Z,100.00
2018-08-11T16:19:41.536Z,100.00
2018-08-11T16:21:12.924Z,100.00
2018-08-11T16:22:40.267Z,100.00
2018-08-11T16:24:03.807Z,100.00
2018-08-11T16:25:31.428Z,100.00
2018-08-11T16:26:58.894Z,100.00
2018-08-11T16:28:30.368Z,100.00
2018-08-11T16:29:54.079Z,100.00
2018-08-11T16:31:21.633Z,100.00
2018-08-11T16:32:48.830Z,100.00
2018-08-11T16:34:20.181Z,100.00
2018-08-11T16:35:47.247Z,100.00
2018-08-11T16:37:10.763Z,100.00
2018-08-11T16:38:42.424Z,100.00
2018-08-11T16:40:09.072Z,100.00
2018-08-11T16:41:36.531Z,100.00
2018-08-11T16:42:59.920Z,100.00
2018-08-11T16:44:27.366Z,100.00
2018-08-11T16:45:54.759Z,100.00
2018-08-11T16:47:21.278Z,100.00
2018-08-11T16:48:52.605Z,100.00
2018-08-11T16:50:15.976Z,100.00
2018-08-11T16:51:46.621Z,100.00
2018-08-11T16:53:12.880Z,100.00
2018-08-11T16:54:40.024Z,100.00
2018-08-11T16:56:07.458Z,100.00
2018-08-11T16:57:34.467Z,100.00
2018-08-11T16:58:57.974Z,100.00
2018-08-11T17:00:25.553Z,100.00
2018-08-11T17:01:56.974Z,100.00
2018-08-11T17:03:24.464Z,100.00
2018-08-11T17:04:47.853Z,100.00
2018-08-11T17:06:15.194Z,100.00
2018-08-11T17:07:46.659Z,100.00
2018-08-11T17:09:14.209Z,100.00
2018-08-11T17:10:37.838Z,100.00
2018-08-11T17:12:09.284Z,100.00
2018-08-11T17:13:32.699Z,100.00
2018-08-11T17:15:04.015Z,100.00
2018-08-11T17:16:27.404Z,100.00
2018-08-11T17:17:54.435Z,100.00
2018-08-11T17:19:25.886Z,100.00
2018-08-11T17:20:49.015Z,100.00
2018-08-11T17:22:16.370Z,100.00
2018-08-11T17:23:47.740Z,100.00
2018-08-11T17:25:11.208Z,100.00
2018-08-11T17:26:38.526Z,100.00
2018-08-11T17:28:10.136Z,100.00
2018-08-11T17:29:33.459Z,100.00
2018-08-11T17:31:00.341Z,100.00
2018-08-11T17:32:31.919Z,100.00
2018-08-11T17:33:59.105Z,100.00
2018-08-11T17:35:22.478Z,100.00
2018-08-11T17:36:53.852Z,100.00
2018-08-11T17:38:16.840Z,100.00
2018-08-11T17:39:44.386Z,100.00
2018-08-11T17:41:11.277Z,100.00
2018-08-11T17:42:43.022Z,100.00
2018-08-11T17:44:06.442Z,100.00
2018-08-11T17:45:33.840Z,100.00
2018-08-11T17:47:05.331Z,100.00
2018-08-11T17:48:28.651Z,100.00
2018-08-11T17:50:00.273Z,100.00
2018-08-11T17:51:22.915Z,100.00
2018-08-11T17:52:49.865Z,100.00
2018-08-11T17:54:20.708Z,100.00
2018-08-11T17:55:43.620Z,100.00
2018-08-11T17:57:11.075Z,100.00
2018-08-11T17:58:38.678Z,100.00
2018-08-11T18:00:10.155Z,100.00
2018-08-11T18:01:33.601Z,100.00
2018-08-11T18:03:05.044Z,100.00
2018-08-11T18:04:31.780Z,100.00
2018-08-11T18:05:55.193Z,100.00
2018-08-11T18:07:26.272Z,100.00
2018-08-11T18:08:53.708Z,100.00
2018-08-11T18:10:16.946Z,100.00
2018-08-11T18:11:48.396Z,100.00
2018-08-11T18:13:15.998Z,100.00
2018-08-11T18:14:39.505Z,100.00
2018-08-11T18:16:06.839Z,100.00
2018-08-11T18:17:33.430Z,100.00
2018-08-11T18:19:04.932Z,100.00
2018-08-11T18:20:28.317Z,100.00
2018-08-11T18:21:55.768Z,100.00
2018-08-11T18:23:27.221Z,100.00
2018-08-11T18:24:54.625Z,100.00
2018-08-11T18:26:17.547Z,100.00
2018-08-11T18:27:44.295Z,100.00
2018-08-11T18:29:15.902Z,100.00
2018-08-11T18:30:38.722Z,100.00
2018-08-11T18:32:10.272Z,100.00
2018-08-11T18:33:37.736Z,100.00
2018-08-11T18:35:01.045Z,100.00
2018-08-11T18:36:28.451Z,100.00
2018-08-11T18:37:59.975Z,100.00
2018-08-11T18:39:23.440Z,100.00
2018-08-11T18:40:54.300Z,100.00
2018-08-11T18:42:17.693Z,100.00
2018-08-11T18:43:48.355Z,100.00
2018-08-11T18:45:15.868Z,100.00
2018-08-11T18:46:43.456Z,100.00
2018-08-11T18:48:10.899Z,100.00
2018-08-11T18:49:34.288Z,100.00
2018-08-11T18:51:05.836Z,100.00
2018-08-11T18:52:29.196Z,100.00
2018-08-11T18:53:56.551Z,100.00
2018-08-11T18:55:28.123Z,100.00
2018-08-11T18:56:55.305Z,100.00
2018-08-11T18:58:21.939Z,100.00
2018-08-11T18:59:45.103Z,100.00
2018-08-11T19:01:15.805Z,100.00
2018-08-11T19:02:43.238Z,100.00
2018-08-11T19:04:06.761Z,100.00
2018-08-11T19:05:34.073Z,100.00
2018-08-11T19:07:01.288Z,100.00
2018-08-11T19:08:28.654Z,100.00
2018-08-11T19:10:00.113Z,100.00
2018-08-11T19:11:27.628Z,100.00
2018-08-11T19:12:54.947Z,100.00
2018-08-11T19:14:22.250Z,100.00